sensor_id;sensor_type;location;lat;lon;timestamp;pressure;altitude;pressure_sealevel;temperature;humidity
47815;BME280;33579;50.058;18.130;2023-04-08T00:00:33;99339.63;;;4.67;100.00
47815;BME280;33579;50.058;18.130;2023-04-08T00:01:34;99336.94;;;4.68;100.00
47815;BME280;33579;50.058;18.130;2023-04-08T00:02:36;99340.50;;;4.67;100.00
47815;BME280;33579;50.058;18.130;2023-04-08T00:03:38;99341.16;;;4.71;100.00
47815;BME280;33579;50.058;18.130;2023-04-08T00:04:40;99335.16;;;4.69;100.00
47815;BME280;33579;50.058;18.130;2023-04-08T00:05:41;99339.63;;;4.67;100.00
47815;BME280;33579;50.058;18.130;2023-04-08T00:06:43;99342.25;;;4.67;100.00
47815;BME280;33579;50.058;18.130;2023-04-08T00:07:44;99343.19;;;4.66;100.00
47815;BME280;33579;50.058;18.130;2023-04-08T00:08:46;99337.16;;;4.65;100.00
47815;BME280;33579;50.058;18.130;2023-04-08T00:09:48;99337.78;;;4.69;100.00
47815;BME280;33579;50.058;18.130;2023-04-08T00:10:49;99339.38;;;4.71;100.00
47815;BME280;33579;50.058;18.130;2023-04-08T00:11:51;99337.03;;;4.67;100.00
47815;BME280;33579;50.058;18.130;2023-04-08T00:12:53;99330.06;;;4.67;100.00
47815;BME280;33579;50.058;18.130;2023-04-08T00:13:55;99339.09;;;4.61;100.00
47815;BME280;33579;50.058;18.130;2023-04-08T00:14:57;99334.88;;;4.59;100.00
47815;BME280;33579;50.058;18.130;2023-04-08T00:15:58;99339.28;;;4.58;100.00
47815;BME280;33579;50.058;18.130;2023-04-08T00:17:00;99332.47;;;4.56;100.00
47815;BME280;33579;50.058;18.130;2023-04-08T00:18:01;99336.75;;;4.57;100.00
47815;BME280;33579;50.058;18.130;2023-04-08T00:19:03;99338.69;;;4.53;100.00
47815;BME280;33579;50.058;18.130;2023-04-08T00:20:05;99338.03;;;4.49;100.00
47815;BME280;33579;50.058;18.130;2023-04-08T00:21:07;99333.88;;;4.47;100.00
47815;BME280;33579;50.058;18.130;2023-04-08T00:22:08;99340.09;;;4.44;100.00
47815;BME280;33579;50.058;18.130;2023-04-08T00:23:10;99338.34;;;4.45;100.00
47815;BME280;33579;50.058;18.130;2023-04-08T00:24:11;99353.97;;;4.45;100.00
47815;BME280;33579;50.058;18.130;2023-04-08T00:25:13;99349.03;;;4.40;100.00
47815;BME280;33579;50.058;18.130;2023-04-08T00:26:14;99349.84;;;4.41;100.00
47815;BME280;33579;50.058;18.130;2023-04-08T00:27:16;99338.50;;;4.42;100.00
47815;BME280;33579;50.058;18.130;2023-04-08T00:28:18;99350.50;;;4.44;100.00
47815;BME280;33579;50.058;18.130;2023-04-08T00:29:19;99349.59;;;4.45;100.00
47815;BME280;33579;50.058;18.130;2023-04-08T00:30:21;99349.22;;;4.52;100.00
47815;BME280;33579;50.058;18.130;2023-04-08T00:31:23;99351.66;;;4.55;100.00
47815;BME280;33579;50.058;18.130;2023-04-08T00:32:25;99350.78;;;4.54;100.00
47815;BME280;33579;50.058;18.130;2023-04-08T00:33:27;99350.63;;;4.57;100.00
47815;BME280;33579;50.058;18.130;2023-04-08T00:34:28;99347.19;;;4.57;100.00
47815;BME280;33579;50.058;18.130;2023-04-08T00:35:30;99349.78;;;4.57;100.00
47815;BME280;33579;50.058;18.130;2023-04-08T00:36:32;99348.66;;;4.61;100.00
47815;BME280;33579;50.058;18.130;2023-04-08T00:37:33;99356.31;;;4.64;100.00
47815;BME280;33579;50.058;18.130;2023-04-08T00:38:35;99356.94;;;4.68;100.00
47815;BME280;33579;50.058;18.130;2023-04-08T00:39:36;99351.66;;;4.69;100.00
47815;BME280;33579;50.058;18.130;2023-04-08T00:40:38;99349.78;;;4.71;100.00
47815;BME280;33579;50.058;18.130;2023-04-08T00:41:40;99352.59;;;4.68;100.00
47815;BME280;33579;50.058;18.130;2023-04-08T00:42:41;99354.19;;;4.71;100.00
47815;BME280;33579;50.058;18.130;2023-04-08T00:43:43;99352.59;;;4.68;100.00
47815;BME280;33579;50.058;18.130;2023-04-08T00:44:44;99356.69;;;4.72;100.00
47815;BME280;33579;50.058;18.130;2023-04-08T00:45:46;99349.72;;;4.73;100.00
47815;BME280;33579;50.058;18.130;2023-04-08T00:46:48;99352.97;;;4.76;100.00
47815;BME280;33579;50.058;18.130;2023-04-08T00:47:50;99360.03;;;4.74;100.00
47815;BME280;33579;50.058;18.130;2023-04-08T00:48:52;99357.41;;;4.74;100.00
47815;BME280;33579;50.058;18.130;2023-04-08T00:49:54;99350.72;;;4.70;100.00
47815;BME280;33579;50.058;18.130;2023-04-08T00:50:56;99357.72;;;4.70;100.00
47815;BME280;33579;50.058;18.130;2023-04-08T00:51:58;99360.31;;;4.70;100.00
47815;BME280;33579;50.058;18.130;2023-04-08T00:53:00;99349.97;;;4.68;100.00
47815;BME280;33579;50.058;18.130;2023-04-08T00:54:02;99358.47;;;4.72;100.00
47815;BME280;33579;50.058;18.130;2023-04-08T00:55:04;99360.31;;;4.70;100.00
47815;BME280;33579;50.058;18.130;2023-04-08T00:56:07;99365.44;;;4.71;100.00
47815;BME280;33579;50.058;18.130;2023-04-08T00:57:08;99362.00;;;4.71;100.00
47815;BME280;33579;50.058;18.130;2023-04-08T00:58:11;99351.84;;;4.66;100.00
47815;BME280;33579;50.058;18.130;2023-04-08T00:59:14;99364.13;;;4.64;100.00
47815;BME280;33579;50.058;18.130;2023-04-08T01:00:15;99376.50;;;4.60;100.00
47815;BME280;33579;50.058;18.130;2023-04-08T01:01:24;99365.88;;;4.49;100.00
47815;BME280;33579;50.058;18.130;2023-04-08T01:04:20;99375.63;;;4.45;100.00
47815;BME280;33579;50.058;18.130;2023-04-08T01:06:49;99374.22;;;4.40;100.00
47815;BME280;33579;50.058;18.130;2023-04-08T01:07:51;99369.75;;;4.42;100.00
47815;BME280;33579;50.058;18.130;2023-04-08T01:08:53;99368.09;;;4.41;100.00
47815;BME280;33579;50.058;18.130;2023-04-08T01:09:58;99373.41;;;4.39;100.00
47815;BME280;33579;50.058;18.130;2023-04-08T01:11:03;99372.63;;;4.37;100.00
47815;BME280;33579;50.058;18.130;2023-04-08T01:12:08;99377.75;;;4.39;100.00
47815;BME280;33579;50.058;18.130;2023-04-08T01:13:16;99370.03;;;4.37;100.00
47815;BME280;33579;50.058;18.130;2023-04-08T01:14:20;99374.22;;;4.40;100.00
47815;BME280;33579;50.058;18.130;2023-04-08T01:15:27;99375.81;;;4.42;100.00
47815;BME280;33579;50.058;18.130;2023-04-08T01:16:29;99376.84;;;4.40;100.00
47815;BME280;33579;50.058;18.130;2023-04-08T01:17:32;99376.75;;;4.41;100.00
47815;BME280;33579;50.058;18.130;2023-04-08T01:18:34;99380.91;;;4.44;100.00
47815;BME280;33579;50.058;18.130;2023-04-08T01:19:38;99376.56;;;4.44;100.00
47815;BME280;33579;50.058;18.130;2023-04-08T01:20:44;99374.97;;;4.42;100.00
47815;BME280;33579;50.058;18.130;2023-04-08T01:21:47;99375.72;;;4.44;100.00
47815;BME280;33579;50.058;18.130;2023-04-08T01:24:00;99383.41;;;4.31;100.00
47815;BME280;33579;50.058;18.130;2023-04-08T01:25:11;99379.16;;;4.30;100.00
47815;BME280;33579;50.058;18.130;2023-04-08T01:26:20;99378.13;;;4.32;100.00
47815;BME280;33579;50.058;18.130;2023-04-08T01:27:26;99378.13;;;4.32;100.00
47815;BME280;33579;50.058;18.130;2023-04-08T01:28:29;99376.63;;;4.28;100.00
47815;BME280;33579;50.058;18.130;2023-04-08T01:29:33;99373.81;;;4.31;100.00
47815;BME280;33579;50.058;18.130;2023-04-08T01:30:38;99367.78;;;4.31;100.00
47815;BME280;33579;50.058;18.130;2023-04-08T01:31:40;99374.00;;;4.28;100.00
47815;BME280;33579;50.058;18.130;2023-04-08T01:32:44;99369.81;;;4.26;100.00
47815;BME280;33579;50.058;18.130;2023-04-08T01:33:47;99375.38;;;4.19;100.00
47815;BME280;33579;50.058;18.130;2023-04-08T01:34:50;99371.44;;;4.12;100.00
47815;BME280;33579;50.058;18.130;2023-04-08T01:35:52;99377.69;;;4.10;100.00
47815;BME280;33579;50.058;18.130;2023-04-08T01:36:57;99378.94;;;4.02;100.00
47815;BME280;33579;50.058;18.130;2023-04-08T01:37:59;99376.34;;;4.02;100.00
47815;BME280;33579;50.058;18.130;2023-04-08T01:39:02;99378.03;;;4.03;100.00
47815;BME280;33579;50.058;18.130;2023-04-08T01:40:07;99381.22;;;4.08;100.00
47815;BME280;33579;50.058;18.130;2023-04-08T01:41:11;99377.84;;;4.06;100.00
47815;BME280;33579;50.058;18.130;2023-04-08T01:42:13;99382.16;;;4.07;100.00
47815;BME280;33579;50.058;18.130;2023-04-08T01:43:17;99381.38;;;4.05;100.00
47815;BME280;33579;50.058;18.130;2023-04-08T01:44:20;99380.56;;;4.05;100.00
47815;BME280;33579;50.058;18.130;2023-04-08T01:45:24;99384.09;;;4.04;100.00
47815;BME280;33579;50.058;18.130;2023-04-08T01:46:26;99378.88;;;4.04;100.00
47815;BME280;33579;50.058;18.130;2023-04-08T01:47:31;99382.91;;;4.10;100.00
47815;BME280;33579;50.058;18.130;2023-04-08T01:48:34;99387.50;;;4.04;100.00
47815;BME280;33579;50.058;18.130;2023-04-08T01:49:38;99376.59;;;3.98;100.00
47815;BME280;33579;50.058;18.130;2023-04-08T01:50:43;99382.94;;;3.93;100.00
47815;BME280;33579;50.058;18.130;2023-04-08T01:51:47;99387.28;;;3.93;100.00
47815;BME280;33579;50.058;18.130;2023-04-08T01:52:50;99385.78;;;3.89;100.00
47815;BME280;33579;50.058;18.130;2023-04-08T01:53:52;99392.34;;;3.80;100.00
47815;BME280;33579;50.058;18.130;2023-04-08T01:54:55;99387.88;;;3.82;100.00
47815;BME280;33579;50.058;18.130;2023-04-08T01:56:01;99391.31;;;3.83;100.00
47815;BME280;33579;50.058;18.130;2023-04-08T01:57:05;99397.81;;;3.75;100.00
47815;BME280;33579;50.058;18.130;2023-04-08T01:58:11;99388.00;;;3.64;100.00
47815;BME280;33579;50.058;18.130;2023-04-08T01:59:19;99391.19;;;3.70;100.00
47815;BME280;33579;50.058;18.130;2023-04-08T02:00:24;99394.44;;;3.73;100.00
47815;BME280;33579;50.058;18.130;2023-04-08T02:01:28;99395.03;;;3.78;100.00
47815;BME280;33579;50.058;18.130;2023-04-08T02:02:31;99398.81;;;3.73;100.00
47815;BME280;33579;50.058;18.130;2023-04-08T02:03:34;99387.47;;;3.74;100.00
47815;BME280;33579;50.058;18.130;2023-04-08T02:04:37;99389.16;;;3.75;100.00
47815;BME280;33579;50.058;18.130;2023-04-08T02:05:39;99390.00;;;3.75;100.00
47815;BME280;33579;50.058;18.130;2023-04-08T02:06:42;99396.53;;;3.83;100.00
47815;BME280;33579;50.058;18.130;2023-04-08T02:07:46;99396.44;;;3.84;100.00
47815;BME280;33579;50.058;18.130;2023-04-08T02:08:48;99399.13;;;3.83;100.00
47815;BME280;33579;50.058;18.130;2023-04-08T02:09:50;99394.09;;;3.79;100.00
47815;BME280;33579;50.058;18.130;2023-04-08T02:10:52;99391.50;;;3.79;100.00
47815;BME280;33579;50.058;18.130;2023-04-08T02:11:53;99394.69;;;3.85;100.00
47815;BME280;33579;50.058;18.130;2023-04-08T02:12:55;99394.53;;;3.88;100.00
47815;BME280;33579;50.058;18.130;2023-04-08T02:13:57;99391.91;;;3.88;100.00
47815;BME280;33579;50.058;18.130;2023-04-08T02:14:59;99403.94;;;3.74;100.00
47815;BME280;33579;50.058;18.130;2023-04-08T02:16:21;99400.59;;;3.72;100.00
47815;BME280;33579;50.058;18.130;2023-04-08T02:18:45;99401.22;;;3.76;100.00
47815;BME280;33579;50.058;18.130;2023-04-08T02:19:57;99408.13;;;3.77;100.00
47815;BME280;33579;50.058;18.130;2023-04-08T02:21:13;99400.22;;;3.78;100.00
47815;BME280;33579;50.058;18.130;2023-04-08T02:22:24;99402.59;;;3.83;100.00
47815;BME280;33579;50.058;18.130;2023-04-08T02:23:31;99404.84;;;3.89;100.00
47815;BME280;33579;50.058;18.130;2023-04-08T02:24:37;99399.72;;;3.88;100.00
47815;BME280;33579;50.058;18.130;2023-04-08T02:25:42;99409.22;;;3.89;100.00
47815;BME280;33579;50.058;18.130;2023-04-08T02:26:46;99405.75;;;3.88;100.00
47815;BME280;33579;50.058;18.130;2023-04-08T02:27:51;99403.25;;;3.87;100.00
47815;BME280;33579;50.058;18.130;2023-04-08T02:28:54;99400.47;;;3.90;100.00
47815;BME280;33579;50.058;18.130;2023-04-08T02:29:57;99399.53;;;3.91;100.00
47815;BME280;33579;50.058;18.130;2023-04-08T02:31:01;99404.84;;;3.89;100.00
47815;BME280;33579;50.058;18.130;2023-04-08T02:32:04;99408.09;;;3.93;100.00
47815;BME280;33579;50.058;18.130;2023-04-08T02:33:10;99405.44;;;3.94;100.00
47815;BME280;33579;50.058;18.130;2023-04-08T02:34:12;99410.72;;;3.93;100.00
47815;BME280;33579;50.058;18.130;2023-04-08T02:35:15;99409.03;;;3.92;100.00
47815;BME280;33579;50.058;18.130;2023-04-08T02:36:18;99408.97;;;3.93;100.00
47815;BME280;33579;50.058;18.130;2023-04-08T02:37:19;99409.69;;;3.96;100.00
47815;BME280;33579;50.058;18.130;2023-04-08T02:38:21;99405.50;;;3.93;100.00
47815;BME280;33579;50.058;18.130;2023-04-08T02:39:30;99405.84;;;3.87;100.00
47815;BME280;33579;50.058;18.130;2023-04-08T02:40:33;99406.44;;;3.92;100.00
47815;BME280;33579;50.058;18.130;2023-04-08T02:41:37;99409.97;;;3.91;100.00
47815;BME280;33579;50.058;18.130;2023-04-08T02:42:38;99404.41;;;3.97;100.00
47815;BME280;33579;50.058;18.130;2023-04-08T02:43:40;99413.81;;;4.00;100.00
47815;BME280;33579;50.058;18.130;2023-04-08T02:44:41;99408.53;;;4.01;100.00
47815;BME280;33579;50.058;18.130;2023-04-08T02:45:43;99404.06;;;4.03;100.00
47815;BME280;33579;50.058;18.130;2023-04-08T02:46:45;99405.59;;;4.07;100.00
47815;BME280;33579;50.058;18.130;2023-04-08T02:47:46;99411.34;;;4.13;100.00
47815;BME280;33579;50.058;18.130;2023-04-08T02:48:48;99412.28;;;4.12;100.00
47815;BME280;33579;50.058;18.130;2023-04-08T02:49:50;99410.69;;;4.09;100.00
47815;BME280;33579;50.058;18.130;2023-04-08T02:50:52;99412.28;;;4.12;100.00
47815;BME280;33579;50.058;18.130;2023-04-08T02:51:53;99410.94;;;4.04;100.00
47815;BME280;33579;50.058;18.130;2023-04-08T02:52:55;99414.41;;;4.05;100.00
47815;BME280;33579;50.058;18.130;2023-04-08T02:53:57;99406.47;;;4.06;100.00
47815;BME280;33579;50.058;18.130;2023-04-08T02:54:58;99418.75;;;4.04;100.00
47815;BME280;33579;50.058;18.130;2023-04-08T02:56:00;99421.22;;;4.07;100.00
47815;BME280;33579;50.058;18.130;2023-04-08T02:57:01;99418.25;;;4.14;100.00
47815;BME280;33579;50.058;18.130;2023-04-08T02:58:03;99420.59;;;4.18;100.00
47815;BME280;33579;50.058;18.130;2023-04-08T02:59:04;99420.66;;;4.17;100.00
47815;BME280;33579;50.058;18.130;2023-04-08T03:00:06;99426.81;;;4.16;100.00
47815;BME280;33579;50.058;18.130;2023-04-08T03:01:08;99423.44;;;4.14;100.00
47815;BME280;33579;50.058;18.130;2023-04-08T03:02:10;99425.50;;;4.08;100.00
47815;BME280;33579;50.058;18.130;2023-04-08T03:03:11;99429.59;;;4.13;100.00
47815;BME280;33579;50.058;18.130;2023-04-08T03:04:13;99425.31;;;4.12;100.00
47815;BME280;33579;50.058;18.130;2023-04-08T03:05:15;99425.13;;;4.15;100.00
47815;BME280;33579;50.058;18.130;2023-04-08T03:06:16;99429.59;;;4.13;100.00
47815;BME280;33579;50.058;18.130;2023-04-08T03:07:18;99427.97;;;4.10;100.00
47815;BME280;33579;50.058;18.130;2023-04-08T03:08:20;99430.09;;;4.03;100.00
47815;BME280;33579;50.058;18.130;2023-04-08T03:09:22;99427.66;;;4.00;100.00
47815;BME280;33579;50.058;18.130;2023-04-08T03:10:23;99425.25;;;3.97;100.00
47815;BME280;33579;50.058;18.130;2023-04-08T03:11:25;99429.41;;;4.00;100.00
47815;BME280;33579;50.058;18.130;2023-04-08T03:12:26;99431.88;;;4.03;100.00
47815;BME280;33579;50.058;18.130;2023-04-08T03:13:28;99429.91;;;4.06;100.00
47815;BME280;33579;50.058;18.130;2023-04-08T03:14:29;99428.16;;;4.07;100.00
47815;BME280;33579;50.058;18.130;2023-04-08T03:15:31;99427.50;;;4.03;100.00
47815;BME280;33579;50.058;18.130;2023-04-08T03:16:32;99425.00;;;4.02;100.00
47815;BME280;33579;50.058;18.130;2023-04-08T03:17:34;99431.03;;;4.02;100.00
47815;BME280;33579;50.058;18.130;2023-04-08T03:18:36;99427.59;;;4.02;100.00
47815;BME280;33579;50.058;18.130;2023-04-08T03:19:37;99430.19;;;4.02;100.00
47815;BME280;33579;50.058;18.130;2023-04-08T03:20:39;99433.88;;;3.98;100.00
47815;BME280;33579;50.058;18.130;2023-04-08T03:21:40;99430.28;;;4.00;100.00
47815;BME280;33579;50.058;18.130;2023-04-08T03:22:42;99426.31;;;3.93;100.00
47815;BME280;33579;50.058;18.130;2023-04-08T03:23:44;99432.22;;;3.97;100.00
47815;BME280;33579;50.058;18.130;2023-04-08T03:24:45;99424.41;;;3.97;100.00
47815;BME280;33579;50.058;18.130;2023-04-08T03:25:47;99434.06;;;3.94;100.00
47815;BME280;33579;50.058;18.130;2023-04-08T03:26:48;99435.00;;;3.93;100.00
47815;BME280;33579;50.058;18.130;2023-04-08T03:27:50;99432.28;;;3.95;100.00
47815;BME280;33579;50.058;18.130;2023-04-08T03:28:52;99430.97;;;3.88;100.00
47815;BME280;33579;50.058;18.130;2023-04-08T03:29:53;99439.53;;;3.90;100.00
47815;BME280;33579;50.058;18.130;2023-04-08T03:30:55;99433.56;;;3.88;100.00
47815;BME280;33579;50.058;18.130;2023-04-08T03:31:57;99431.78;;;3.88;100.00
47815;BME280;33579;50.058;18.130;2023-04-08T03:32:58;99441.28;;;3.89;100.00
47815;BME280;33579;50.058;18.130;2023-04-08T03:34:00;99443.78;;;3.91;100.00
47815;BME280;33579;50.058;18.130;2023-04-08T03:35:02;99440.38;;;3.90;100.00
47815;BME280;33579;50.058;18.130;2023-04-08T03:36:04;99439.69;;;3.87;100.00
47815;BME280;33579;50.058;18.130;2023-04-08T03:37:06;99433.13;;;3.79;100.00
47815;BME280;33579;50.058;18.130;2023-04-08T03:38:08;99438.34;;;3.79;100.00
47815;BME280;33579;50.058;18.130;2023-04-08T03:39:09;99432.31;;;3.79;100.00
47815;BME280;33579;50.058;18.130;2023-04-08T03:40:11;99433.81;;;3.83;100.00
47815;BME280;33579;50.058;18.130;2023-04-08T03:41:13;99437.09;;;3.87;100.00
47815;BME280;33579;50.058;18.130;2023-04-08T03:42:14;99439.03;;;3.83;100.00
47815;BME280;33579;50.058;18.130;2023-04-08T03:43:16;99440.44;;;3.89;100.00
47815;BME280;33579;50.058;18.130;2023-04-08T03:44:18;99442.13;;;3.90;100.00
47815;BME280;33579;50.058;18.130;2023-04-08T03:45:19;99442.97;;;3.90;100.00
47815;BME280;33579;50.058;18.130;2023-04-08T03:46:21;99439.53;;;3.90;100.00
47815;BME280;33579;50.058;18.130;2023-04-08T03:47:22;99447.31;;;3.90;100.00
47815;BME280;33579;50.058;18.130;2023-04-08T03:48:24;99437.00;;;3.88;100.00
47815;BME280;33579;50.058;18.130;2023-04-08T03:49:25;99447.06;;;3.94;100.00
47815;BME280;33579;50.058;18.130;2023-04-08T03:50:27;99448.94;;;3.92;100.00
47815;BME280;33579;50.058;18.130;2023-04-08T03:51:29;99448.06;;;3.92;100.00
47815;BME280;33579;50.058;18.130;2023-04-08T03:52:30;99453.47;;;3.89;100.00
47815;BME280;33579;50.058;18.130;2023-04-08T03:53:32;99447.50;;;3.87;100.00
47815;BME280;33579;50.058;18.130;2023-04-08T03:54:33;99452.47;;;3.91;100.00
47815;BME280;33579;50.058;18.130;2023-04-08T03:55:35;99453.28;;;3.92;100.00
47815;BME280;33579;50.058;18.130;2023-04-08T03:56:36;99451.34;;;3.96;100.00
47815;BME280;33579;50.058;18.130;2023-04-08T03:57:38;99457.31;;;3.98;100.00
47815;BME280;33579;50.058;18.130;2023-04-08T03:58:39;99458.25;;;3.97;100.00
47815;BME280;33579;50.058;18.130;2023-04-08T03:59:41;99453.88;;;3.97;100.00
47815;BME280;33579;50.058;18.130;2023-04-08T04:00:42;99455.63;;;3.97;100.00
47815;BME280;33579;50.058;18.130;2023-04-08T04:01:44;99461.50;;;4.00;100.00
47815;BME280;33579;50.058;18.130;2023-04-08T04:02:45;99464.28;;;3.97;100.00
47815;BME280;33579;50.058;18.130;2023-04-08T04:03:47;99463.53;;;3.95;100.00
47815;BME280;33579;50.058;18.130;2023-04-08T04:04:49;99465.28;;;3.94;100.00
47815;BME280;33579;50.058;18.130;2023-04-08T04:05:51;99471.50;;;3.92;100.00
47815;BME280;33579;50.058;18.130;2023-04-08T04:06:52;99462.44;;;3.83;100.00
47815;BME280;33579;50.058;18.130;2023-04-08T04:07:54;99467.91;;;3.78;100.00
47815;BME280;33579;50.058;18.130;2023-04-08T04:08:56;99462.94;;;3.74;100.00
47815;BME280;33579;50.058;18.130;2023-04-08T04:09:57;99471.44;;;3.77;100.00
47815;BME280;33579;50.058;18.130;2023-04-08T04:10:59;99465.66;;;3.72;100.00
47815;BME280;33579;50.058;18.130;2023-04-08T04:12:00;99473.88;;;3.64;100.00
47815;BME280;33579;50.058;18.130;2023-04-08T04:13:02;99469.41;;;3.67;100.00
47815;BME280;33579;50.058;18.130;2023-04-08T04:14:03;99474.44;;;3.70;100.00
47815;BME280;33579;50.058;18.130;2023-04-08T04:15:05;99472.53;;;3.73;100.00
47815;BME280;33579;50.058;18.130;2023-04-08T04:16:07;99476.81;;;3.74;100.00
47815;BME280;33579;50.058;18.130;2023-04-08T04:17:09;99475.94;;;3.74;100.00
47815;BME280;33579;50.058;18.130;2023-04-08T04:18:10;99476.06;;;3.72;100.00
47815;BME280;33579;50.058;18.130;2023-04-08T04:19:12;99481.91;;;3.76;100.00
47815;BME280;33579;50.058;18.130;2023-04-08T04:20:13;99482.69;;;3.78;100.00
47815;BME280;33579;50.058;18.130;2023-04-08T04:21:15;99488.66;;;3.80;100.00
47815;BME280;33579;50.058;18.130;2023-04-08T04:22:17;99478.31;;;3.78;100.00
47815;BME280;33579;50.058;18.130;2023-04-08T04:23:18;99486.88;;;3.80;100.00
47815;BME280;33579;50.058;18.130;2023-04-08T04:24:20;99485.00;;;3.83;100.00
47815;BME280;33579;50.058;18.130;2023-04-08T04:25:22;99484.69;;;3.89;100.00
47815;BME280;33579;50.058;18.130;2023-04-08T04:26:23;99485.78;;;3.85;100.00
47815;BME280;33579;50.058;18.130;2023-04-08T04:27:25;99485.94;;;3.82;100.00
47815;BME280;33579;50.058;18.130;2023-04-08T04:28:26;99489.03;;;3.88;100.00
47815;BME280;33579;50.058;18.130;2023-04-08T04:29:30;99488.97;;;3.90;100.00
47815;BME280;33579;50.058;18.130;2023-04-08T04:30:32;99487.88;;;3.94;100.00
47815;BME280;33579;50.058;18.130;2023-04-08T04:31:33;99491.25;;;3.96;100.00
47815;BME280;33579;50.058;18.130;2023-04-08T04:32:35;99487.72;;;3.97;100.00
47815;BME280;33579;50.058;18.130;2023-04-08T04:33:36;99488.72;;;3.94;100.00
47815;BME280;33579;50.058;18.130;2023-04-08T04:34:38;99490.34;;;3.97;100.00
47815;BME280;33579;50.058;18.130;2023-04-08T04:35:40;99492.25;;;3.93;100.00
47815;BME280;33579;50.058;18.130;2023-04-08T04:36:42;99494.44;;;3.85;100.00
47815;BME280;33579;50.058;18.130;2023-04-08T04:37:44;99493.34;;;3.89;100.00
47815;BME280;33579;50.058;18.130;2023-04-08T04:38:45;99494.94;;;3.92;100.00
47815;BME280;33579;50.058;18.130;2023-04-08T04:39:50;99494.09;;;3.91;100.00
47815;BME280;33579;50.058;18.130;2023-04-08T04:40:52;99487.97;;;3.92;100.00
47815;BME280;33579;50.058;18.130;2023-04-08T04:41:53;99504.78;;;4.03;100.00
47815;BME280;33579;50.058;18.130;2023-04-08T04:42:55;99503.75;;;4.05;100.00
47815;BME280;33579;50.058;18.130;2023-04-08T04:43:56;99496.88;;;4.04;100.00
47815;BME280;33579;50.058;18.130;2023-04-08T04:44:58;99497.91;;;4.02;100.00
47815;BME280;33579;50.058;18.130;2023-04-08T04:45:59;99496.34;;;3.98;100.00
47815;BME280;33579;50.058;18.130;2023-04-08T04:47:01;99492.00;;;3.98;100.00
47815;BME280;33579;50.058;18.130;2023-04-08T04:48:03;99501.38;;;4.01;100.00
47815;BME280;33579;50.058;18.130;2023-04-08T04:49:04;99496.13;;;4.02;100.00
47815;BME280;33579;50.058;18.130;2023-04-08T04:50:06;99502.19;;;4.03;100.00
47815;BME280;33579;50.058;18.130;2023-04-08T04:51:08;99499.56;;;4.03;100.00
47815;BME280;33579;50.058;18.130;2023-04-08T04:52:10;99501.25;;;4.04;100.00
47815;BME280;33579;50.058;18.130;2023-04-08T04:53:11;99504.69;;;4.04;100.00
47815;BME280;33579;50.058;18.130;2023-04-08T04:54:13;99498.97;;;3.98;100.00
47815;BME280;33579;50.058;18.130;2023-04-08T04:55:14;99500.63;;;3.99;100.00
47815;BME280;33579;50.058;18.130;2023-04-08T04:56:16;99504.16;;;3.98;100.00
47815;BME280;33579;50.058;18.130;2023-04-08T04:57:17;99510.56;;;3.92;100.00
47815;BME280;33579;50.058;18.130;2023-04-08T04:58:19;99512.16;;;3.94;100.00
47815;BME280;33579;50.058;18.130;2023-04-08T04:59:21;99511.66;;;3.88;100.00
47815;BME280;33579;50.058;18.130;2023-04-08T05:00:22;99515.00;;;3.90;100.00
47815;BME280;33579;50.058;18.130;2023-04-08T05:01:24;99515.06;;;3.88;100.00
47815;BME280;33579;50.058;18.130;2023-04-08T05:02:25;99512.47;;;3.88;100.00
47815;BME280;33579;50.058;18.130;2023-04-08T05:03:27;99527.19;;;3.89;100.00
47815;BME280;33579;50.058;18.130;2023-04-08T05:04:29;99529.81;;;3.89;100.00
47815;BME280;33579;50.058;18.130;2023-04-08T05:05:31;99520.97;;;3.92;100.00
47815;BME280;33579;50.058;18.130;2023-04-08T05:06:32;99524.31;;;3.94;100.00
47815;BME280;33579;50.058;18.130;2023-04-08T05:07:35;99528.94;;;3.89;100.00
47815;BME280;33579;50.058;18.130;2023-04-08T05:08:36;99526.16;;;3.92;100.00
47815;BME280;33579;50.058;18.130;2023-04-08T05:09:38;99527.78;;;3.94;100.00
47815;BME280;33579;50.058;18.130;2023-04-08T05:10:40;99530.44;;;3.93;100.00
47815;BME280;33579;50.058;18.130;2023-04-08T05:11:41;99527.19;;;3.89;100.00
47815;BME280;33579;50.058;18.130;2023-04-08T05:12:43;99529.69;;;3.91;100.00
47815;BME280;33579;50.058;18.130;2023-04-08T05:13:44;99519.28;;;3.91;100.00
47815;BME280;33579;50.058;18.130;2023-04-08T05:14:46;99529.63;;;3.92;100.00
47815;BME280;33579;50.058;18.130;2023-04-08T05:15:48;99530.78;;;3.87;100.00
47815;BME280;33579;50.058;18.130;2023-04-08T05:16:49;99529.00;;;3.87;100.00
47815;BME280;33579;50.058;18.130;2023-04-08T05:17:51;99531.47;;;3.90;100.00
47815;BME280;33579;50.058;18.130;2023-04-08T05:18:52;99540.13;;;3.91;100.00
47815;BME280;33579;50.058;18.130;2023-04-08T05:19:54;99535.66;;;3.93;100.00
47815;BME280;33579;50.058;18.130;2023-04-08T05:20:56;99532.91;;;3.96;100.00
47815;BME280;33579;50.058;18.130;2023-04-08T05:21:57;99536.16;;;4.00;100.00
47815;BME280;33579;50.058;18.130;2023-04-08T05:22:59;99534.41;;;4.00;100.00
47815;BME280;33579;50.058;18.130;2023-04-08T05:24:00;99537.34;;;3.94;100.00
47815;BME280;33579;50.058;18.130;2023-04-08T05:25:02;99539.13;;;3.93;100.00
47815;BME280;33579;50.058;18.130;2023-04-08T05:26:06;99537.50;;;3.91;100.00
47815;BME280;33579;50.058;18.130;2023-04-08T05:27:08;99539.94;;;3.94;100.00
47815;BME280;33579;50.058;18.130;2023-04-08T05:28:10;99546.56;;;4.00;100.00
47815;BME280;33579;50.058;18.130;2023-04-08T05:29:11;99541.97;;;4.05;100.00
47815;BME280;33579;50.058;18.130;2023-04-08T05:30:13;99540.97;;;4.07;100.00
47815;BME280;33579;50.058;18.130;2023-04-08T05:31:15;99542.66;;;4.08;100.00
47815;BME280;33579;50.058;18.130;2023-04-08T05:32:17;99537.44;;;4.08;100.00